Time;durP1;ratioP1;P1;durP2;ratioP2;P2;SDS_P1;SDS_P2;PMS_P1;PMS_P2;Temp;Humidity;BMP_temperature;BMP_pressure;BME280_temperature;BME280_humidity;BME280_pressure;Samples;Min_cycle;Max_cycle;Signal;HPM_P1;HPM_P2
2023/03/24 00:01:43;;;;;;;11.40;9.80;;;;;;;12.61;61.03;99713.35;111082;1260;22977;-82
2023/03/24 00:04:13;;;;;;;11.40;9.20;;;;;;;12.60;61.09;99713.59;111098;1260;21970;-81
2023/03/24 00:06:54;;;;;;;10.20;8.70;;;;;;;12.59;60.98;99709.67;111012;1259;22061;-81
2023/03/24 00:09:24;;;;;;;15.00;10.30;;;;;;;12.58;61.06;99706.94;110938;1258;22399;-81
2023/03/24 00:11:58;;;;;;;13.10;10.90;;;;;;;12.58;61.08;99704.29;110269;1266;22036;-82
2023/03/24 00:14:29;;;;;;;18.80;11.70;;;;;;;12.57;60.91;99703.85;110362;1266;22009;-81
2023/03/24 00:17:12;;;;;;;14.40;11.30;;;;;;;12.55;60.89;99697.83;110497;1266;23080;-82
2023/03/24 00:19:46;;;;;;;12.80;10.90;;;;;;;12.52;61.06;99690.49;110474;1266;22008;-82
2023/03/24 00:22:20;;;;;;;13.80;11.70;;;;;;;12.52;61.02;99682.49;110501;1266;21992;-82
2023/03/24 00:24:49;;;;;;;12.30;10.60;;;;;;;12.51;61.05;99687.06;110212;1269;22004;-81
2023/03/24 00:27:21;;;;;;;14.10;11.20;;;;;;;12.50;61.00;99685.73;110202;1269;21981;-82
2023/03/24 00:29:58;;;;;;;12.70;11.30;;;;;;;12.48;61.08;99688.09;110096;1264;23120;-82
2023/03/24 00:32:39;;;;;;;12.80;11.50;;;;;;;12.47;61.07;99687.29;110717;1265;23595;-81
2023/03/24 00:35:17;;;;;;;15.00;12.60;;;;;;;12.42;61.08;99688.43;110689;1265;23689;-80
2023/03/24 00:37:50;;;;;;;14.30;12.80;;;;;;;12.41;61.13;99685.70;110676;1265;23029;-80
2023/03/24 00:40:21;;;;;;;16.20;14.40;;;;;;;12.42;61.15;99680.27;110661;1264;21978;-81
2023/03/24 00:43:00;;;;;;;16.10;14.50;;;;;;;12.40;61.09;99678.92;110824;1259;22368;-80
2023/03/24 00:45:45;;;;;;;16.20;14.50;;;;;;;12.38;61.14;99680.09;111152;1259;22730;-80
2023/03/24 00:48:23;;;;;;;16.90;13.20;;;;;;;12.37;61.12;99680.16;110787;1260;21997;-79
2023/03/24 00:51:01;;;;;;;13.60;11.20;;;;;;;12.36;61.14;99681.11;110930;1260;23709;-81
2023/03/24 00:53:36;;;;;;;12.20;10.60;;;;;;;12.36;61.23;99681.11;111045;1259;21975;-81
2023/03/24 00:56:10;;;;;;;12.60;10.90;;;;;;;12.35;61.28;99680.79;110751;1259;21972;-80
2023/03/24 00:58:43;;;;;;;11.90;9.50;;;;;;;12.34;61.24;99677.55;110682;1264;21990;-80
2023/03/24 01:01:31;;;;;;;12.60;9.40;;;;;;;12.30;61.18;99673.58;110309;1264;21978;-79
2023/03/24 01:04:09;;;;;;;11.30;8.80;;;;;;;12.27;61.23;99673.05;110476;1264;21979;-78
2023/03/24 01:06:43;;;;;;;14.00;9.10;;;;;;;12.25;61.29;99671.22;110725;1263;21977;-79
2023/03/24 01:09:20;;;;;;;10.90;9.10;;;;;;;12.25;61.28;99664.93;110508;1264;22171;-79
2023/03/24 01:11:56;;;;;;;14.30;9.60;;;;;;;12.25;61.34;99658.82;110424;1253;23032;-79
2023/03/24 01:14:27;;;;;;;21.20;17.20;;;;;;;12.26;61.34;99657.39;110658;1265;21993;-80
2023/03/24 01:16:59;;;;;;;18.80;15.50;;;;;;;12.25;61.28;99651.02;110614;1260;21979;-80
2023/03/24 01:19:31;;;;;;;16.90;14.30;;;;;;;12.23;61.26;99648.52;110637;1264;22134;-80
2023/03/24 01:22:09;;;;;;;23.50;16.40;;;;;;;12.21;61.25;99647.55;110645;1264;21981;-79
2023/03/24 01:24:46;;;;;;;19.00;15.20;;;;;;;12.18;61.26;99646.83;110642;1264;22329;-81
2023/03/24 01:27:24;;;;;;;16.40;14.60;;;;;;;12.12;61.12;99649.25;110536;1264;22004;-80
2023/03/24 01:30:03;;;;;;;16.60;14.10;;;;;;;12.07;61.25;99648.52;109873;1268;22006;-80
2023/03/24 01:32:33;;;;;;;14.90;10.90;;;;;;;12.01;61.37;99646.21;109659;1268;21954;-80
2023/03/24 01:35:10;;;;;;;12.20;10.60;;;;;;;11.96;61.36;99644.20;109775;1270;22945;-81
2023/03/24 01:37:46;;;;;;;;;;;;;;;11.93;61.43;99636.19;110012;1268;21993;-81
2023/03/24 01:40:28;;;;;;;13.70;10.00;;;;;;;11.80;61.60;99637.07;109860;1269;21987;-79
2023/03/24 01:43:06;;;;;;;12.30;10.10;;;;;;;11.76;61.82;99629.39;109897;1268;21978;-80
2023/03/24 01:46:15;;;;;;;12.30;9.00;;;;;;;11.76;61.84;99623.50;110749;1262;21965;-81
2023/03/24 01:49:04;;;;;;;14.50;9.70;;;;;;;11.74;62.00;99618.56;110731;1259;23721;-80
2023/03/24 01:51:42;;;;;;;12.40;8.90;;;;;;;11.74;62.20;99618.91;111035;1257;23670;-80
2023/03/24 01:54:29;;;;;;;12.10;10.00;;;;;;;11.74;62.43;99617.66;111122;1260;23592;-80
2023/03/24 01:57:22;;;;;;;15.30;11.00;;;;;;;11.75;62.56;99615.54;111006;1259;22840;-81
2023/03/24 02:00:06;;;;;;;11.00;9.50;;;;;;;11.75;62.60;99614.84;110579;1264;22626;-81
2023/03/24 02:03:16;;;;;;;12.20;9.10;;;;;;;11.74;62.62;99613.48;110546;1265;21993;-80
2023/03/24 02:06:01;;;;;;;13.00;9.80;;;;;;;11.74;62.56;99608.25;109899;1257;21991;-81
2023/03/24 02:08:48;;;;;;;15.50;11.50;;;;;;;11.74;62.36;99612.26;109821;1268;23913;-81
2023/03/24 02:11:24;;;;;;;15.80;11.90;;;;;;;11.68;62.32;99613.45;109918;1268;24317;-79
2023/03/24 02:14:07;;;;;;;14.40;11.60;;;;;;;11.63;62.55;99617.59;109823;1265;22349;-81
2023/03/24 02:17:17;;;;;;;18.20;13.60;;;;;;;11.51;62.50;99611.77;109716;1265;22417;-80
2023/03/24 02:20:39;;;;;;;16.30;12.40;;;;;;;11.40;62.89;99603.30;110684;1264;21966;-83
2023/03/24 02:23:40;;;;;;;17.80;13.70;;;;;;;11.38;63.27;99600.25;110351;1259;23049;-82
2023/03/24 02:26:45;;;;;;;19.80;16.60;;;;;;;11.38;63.24;99601.68;111055;1259;23029;-83
2023/03/24 02:30:06;;;;;;;21.40;18.10;;;;;;;11.34;63.21;99603.27;111069;1246;21973;-80
2023/03/24 02:33:07;;;;;;;20.20;17.70;;;;;;;11.24;63.36;99598.04;110972;1260;21998;-81
2023/03/24 02:36:31;;;;;;;23.80;19.60;;;;;;;11.20;63.74;99599.81;111152;1259;21981;-80
2023/03/24 02:39:36;;;;;;;30.10;26.00;;;;;;;11.18;63.83;99606.38;110556;1256;21972;-82
2023/03/24 02:42:41;;;;;;;30.60;26.60;;;;;;;11.13;63.85;99605.41;110254;1254;23073;-82
2023/03/24 02:45:34;;;;;;;32.50;29.10;;;;;;;11.09;64.11;99606.98;110430;1256;22020;-81
2023/03/24 02:48:42;;;;;;;32.50;28.50;;;;;;;11.09;64.27;99602.65;110397;1266;22707;-81
2023/03/24 02:51:50;;;;;;;34.10;26.90;;;;;;;11.07;64.28;99604.46;110387;1266;23731;-82
2023/03/24 02:55:07;;;;;;;29.50;26.00;;;;;;;11.09;64.67;99598.44;109574;1268;21989;-81
2023/03/24 02:57:53;;;;;;;26.60;23.80;;;;;;;11.16;64.88;99592.15;109255;1277;23736;-81
2023/03/24 03:01:29;;;;;;;25.30;22.70;;;;;;;11.22;64.76;99587.66;109157;1276;22037;-82
2023/03/24 03:04:41;;;;;;;25.50;21.60;;;;;;;11.25;64.75;99588.73;108458;1288;22005;-81
2023/03/24 03:07:23;;;;;;;22.80;19.30;;;;;;;11.28;64.54;99582.63;108553;1288;23071;-81
2023/03/24 03:10:22;;;;;;;24.70;20.70;;;;;;;11.32;64.55;99579.15;108238;1293;22018;-82
2023/03/24 03:13:01;;;;;;;28.30;20.90;;;;;;;11.31;64.52;99574.30;107893;1294;22016;-81
2023/03/24 03:15:36;;;;;;;21.20;17.90;;;;;;;11.31;64.47;99569.45;104344;1286;5088003;-82
2023/03/24 03:18:24;;;;;;;19.30;17.30;;;;;;;11.28;64.38;99562.10;108600;1286;22021;-81
2023/03/24 03:21:12;;;;;;;16.80;13.40;;;;;;;11.22;64.31;99565.19;108661;1286;22010;-82
2023/03/24 03:23:50;;;;;;;16.00;13.40;;;;;;;11.13;64.31;99561.66;109016;1280;22095;-81
2023/03/24 03:26:37;;;;;;;17.10;13.30;;;;;;;11.04;64.63;99559.70;108706;1285;21994;-81
2023/03/24 03:29:24;;;;;;;14.00;12.10;;;;;;;11.00;64.85;99557.65;109062;1275;21971;-81
2023/03/24 03:32:11;;;;;;;16.70;13.00;;;;;;;10.97;65.18;99555.20;108917;1279;22046;-82
2023/03/24 03:35:14;;;;;;;19.00;13.30;;;;;;;10.94;65.28;99549.98;109097;1277;22143;-81
2023/03/24 03:37:59;;;;;;;13.20;11.00;;;;;;;10.90;65.43;99546.32;109026;1279;23065;-82
2023/03/24 03:41:06;;;;;;;14.60;12.30;;;;;;;10.90;65.59;99537.65;109213;1273;22027;-81
2023/03/24 03:43:37;;;;;;;14.30;12.10;;;;;;;10.88;65.75;99532.89;109182;1264;22023;-82
2023/03/24 03:46:09;;;;;;;15.00;10.10;;;;;;;10.86;65.80;99526.68;108996;1276;22423;-82
2023/03/24 03:48:40;;;;;;;14.00;10.70;;;;;;;10.87;65.93;99526.13;109215;1276;23783;-82
2023/03/24 03:51:20;;;;;;;15.40;12.50;;;;;;;10.87;66.13;99525.25;109835;1267;23039;-80
2023/03/24 03:54:12;;;;;;;15.40;12.40;;;;;;;10.89;66.20;99526.88;110128;1267;23742;-81
2023/03/24 03:56:52;;;;;;;14.80;12.20;;;;;;;10.94;66.32;99529.44;110543;1266;23609;-82
2023/03/24 03:59:34;;;;;;;17.90;12.60;;;;;;;11.00;66.36;99530.66;109775;1270;23635;-80
2023/03/24 04:02:56;;;;;;;16.40;13.60;;;;;;;11.08;66.32;99527.80;109832;1271;21976;-84
2023/03/24 04:05:49;;;;;;;18.70;14.20;;;;;;;11.13;66.18;99532.58;110027;1270;24316;-81
2023/03/24 04:08:49;;;;;;;17.60;13.00;;;;;;;11.18;66.15;99533.21;110031;1270;22009;-81
2023/03/24 04:12:18;;;;;;;17.20;12.30;;;;;;;11.23;66.13;99532.95;109534;1268;21979;-83
2023/03/24 04:15:34;;;;;;;15.30;13.10;;;;;;;11.23;65.90;99529.27;109860;1270;21995;-81
2023/03/24 04:18:48;;;;;;;15.90;13.30;;;;;;;11.19;65.76;99529.17;109777;1265;22245;-83
2023/03/24 04:21:52;;;;;;;16.50;13.80;;;;;;;11.16;65.71;99528.77;110475;1264;21975;-81
2023/03/24 04:24:53;;;;;;;18.00;15.50;;;;;;;11.14;65.92;99529.08;110809;1259;23034;-81
2023/03/24 04:27:55;;;;;;;15.30;13.10;;;;;;;11.10;66.00;99528.04;111051;1259;23013;-82
2023/03/24 04:30:29;;;;;;;14.50;13.00;;;;;;;11.10;66.13;99524.39;111069;1260;22442;-83
2023/03/24 04:33:57;;;;;;;14.00;11.80;;;;;;;11.12;66.22;99525.54;110389;1265;21998;-83
2023/03/24 04:36:49;;;;;;;19.60;14.70;;;;;;;11.09;66.32;99524.12;110440;1265;22910;-81
2023/03/24 04:39:44;;;;;;;23.50;16.70;;;;;;;11.10;66.22;99522.50;110696;1264;22070;-83
2023/03/24 04:42:35;;;;;;;20.40;18.20;;;;;;;11.11;66.35;99521.89;109969;1270;22075;-81
2023/03/24 04:45:08;;;;;;;19.50;16.10;;;;;;;11.14;66.47;99522.45;109781;1269;22010;-80
2023/03/24 04:48:11;;;;;;;17.90;15.20;;;;;;;11.16;66.53;99519.04;109578;1272;22982;-80
2023/03/24 04:51:15;;;;;;;15.30;13.60;;;;;;;11.16;66.57;99518.33;109593;1268;23732;-83
2023/03/24 04:53:59;;;;;;;16.30;13.10;;;;;;;11.18;66.65;99516.84;110246;1268;21986;-81
2023/03/24 04:56:37;;;;;;;15.90;12.40;;;;;;;11.22;66.64;99519.60;109630;1274;21996;-81
2023/03/24 04:59:14;;;;;;;13.50;12.10;;;;;;;11.28;66.88;99521.91;109661;1272;21987;-82
2023/03/24 05:01:51;;;;;;;13.90;11.00;;;;;;;11.35;66.84;99522.02;109611;1275;21985;-81
2023/03/24 05:04:35;;;;;;;14.10;11.40;;;;;;;11.41;66.58;99526.08;109701;1270;21997;-82
2023/03/24 05:07:14;;;;;;;15.90;11.80;;;;;;;11.42;66.61;99524.77;109748;1270;22833;-83
2023/03/24 05:09:50;;;;;;;20.50;15.80;;;;;;;11.47;66.76;99525.73;109506;1270;22759;-82
2023/03/24 05:12:29;;;;;;;20.80;18.70;;;;;;;11.53;66.77;99522.25;109757;1270;23143;-81
2023/03/24 05:15:29;;;;;;;18.90;17.00;;;;;;;11.57;66.75;99521.70;109865;1270;23035;-83
2023/03/24 05:18:16;;;;;;;19.60;17.50;;;;;;;11.61;66.81;99521.68;110006;1270;23004;-81
2023/03/24 05:20:48;;;;;;;26.00;23.30;;;;;;;11.67;66.94;99518.34;110193;1259;21974;-82
2023/03/24 05:23:21;;;;;;;29.00;26.10;;;;;;;11.70;66.86;99513.64;110693;1264;22532;-82
2023/03/24 05:25:57;;;;;;;28.00;25.50;;;;;;;11.73;66.95;99508.26;110696;1264;21978;-82
2023/03/24 05:28:27;;;;;;;26.60;23.80;;;;;;;11.75;67.07;99502.20;110634;1265;22984;-80
2023/03/24 05:31:05;;;;;;;25.40;23.20;;;;;;;11.75;66.86;99498.95;110516;1266;24750;-81
2023/03/24 05:33:47;;;;;;;37.70;34.10;;;;;;;11.66;66.96;99491.58;110440;1264;23589;-83
2023/03/24 05:36:26;;;;;;;48.70;44.00;;;;;;;11.56;67.26;99487.61;110691;1265;22005;-82
2023/03/24 05:39:02;;;;;;;42.90;39.20;;;;;;;11.49;67.45;99486.59;109973;1261;21978;-82
2023/03/24 05:41:46;;;;;;;43.50;39.40;;;;;;;11.44;68.09;99485.50;109582;1270;23080;-81
2023/03/24 05:44:20;;;;;;;30.40;27.40;;;;;;;11.41;68.11;99481.10;109921;1270;21981;-82
2023/03/24 05:47:04;;;;;;;20.60;18.40;;;;;;;11.39;68.22;99477.20;109364;1274;21983;-83
2023/03/24 05:49:38;;;;;;;17.70;15.80;;;;;;;11.37;68.62;99473.16;109102;1279;21996;-80
2023/03/24 05:52:19;;;;;;;17.30;15.30;;;;;;;11.35;68.95;99470.63;109009;1279;22005;-84
2023/03/24 05:55:03;;;;;;;22.50;15.70;;;;;;;11.34;69.22;99465.66;109003;1279;22012;-82
2023/03/24 05:57:45;;;;;;;22.30;17.30;;;;;;;11.37;69.37;99466.36;109371;1275;22001;-82
2023/03/24 06:00:23;;;;;;;24.50;17.60;;;;;;;11.43;69.49;99461.84;109540;1270;22001;-83
2023/03/24 06:03:02;;;;;;;20.40;15.10;;;;;;;11.50;69.70;99454.98;109862;1269;22060;-82
2023/03/24 06:05:46;;;;;;;16.50;13.30;;;;;;;11.54;69.59;99449.90;110072;1265;24414;-81
2023/03/24 06:08:27;;;;;;;14.60;12.60;;;;;;;11.57;69.54;99443.27;110783;1259;21960;-80
2023/03/24 06:11:18;;;;;;;16.90;14.00;;;;;;;11.61;69.65;99438.55;110484;1266;22017;-80
2023/03/24 06:14:09;;;;;;;17.10;13.60;;;;;;;11.67;69.70;99439.59;110205;1266;23113;-81
2023/03/24 06:17:07;;;;;;;22.30;15.90;;;;;;;11.75;69.92;99445.42;110364;1266;23007;-80
2023/03/24 06:19:48;;;;;;;18.10;13.60;;;;;;;11.85;69.57;99448.33;110444;1265;23051;-81
2023/03/24 06:22:31;;;;;;;19.60;16.20;;;;;;;11.91;69.50;99449.09;110323;1266;21985;-81
2023/03/24 06:25:19;;;;;;;19.00;16.30;;;;;;;11.96;69.43;99441.95;110226;1266;23029;-80
2023/03/24 06:28:13;;;;;;;26.80;18.40;;;;;;;12.03;69.42;99440.67;109761;1270;21988;-79
2023/03/24 06:31:22;;;;;;;17.00;14.60;;;;;;;12.11;69.41;99440.20;110793;1266;23702;-81
2023/03/24 06:33:57;;;;;;;19.30;13.70;;;;;;;12.21;69.29;99439.29;110485;1266;21967;-82
2023/03/24 06:36:42;;;;;;;18.10;13.90;;;;;;;12.24;69.05;99433.18;110508;1266;21995;-82
2023/03/24 06:39:55;;;;;;;20.60;15.00;;;;;;;12.28;68.89;99429.77;110158;1266;22018;-84
2023/03/24 06:42:32;;;;;;;26.30;23.60;;;;;;;12.35;69.03;99429.39;110342;1265;21953;-81
2023/03/24 06:45:11;;;;;;;17.90;16.00;;;;;;;12.44;69.06;99429.54;110597;1259;21985;-80
2023/03/24 06:47:55;;;;;;;21.80;15.80;;;;;;;12.57;68.94;99428.09;111096;1258;23476;-82
2023/03/24 06:50:34;;;;;;;16.20;14.60;;;;;;;12.69;68.82;99427.36;111040;1260;23625;-82
2023/03/24 06:53:15;;;;;;;17.70;15.80;;;;;;;12.80;68.60;99425.95;110539;1265;21985;-82
2023/03/24 06:55:51;;;;;;;17.50;15.70;;;;;;;12.92;68.25;99425.77;110499;1265;21978;-81
2023/03/24 06:58:42;;;;;;;19.10;14.30;;;;;;;13.01;68.04;99427.66;110551;1265;23060;-81
2023/03/24 07:01:23;;;;;;;17.20;13.90;;;;;;;13.09;67.69;99423.16;109698;1271;22011;-81
2023/03/24 07:04:24;;;;;;;18.10;15.20;;;;;;;13.12;67.20;99425.58;109691;1270;23743;-82
2023/03/24 07:06:57;;;;;;;19.20;14.20;;;;;;;13.16;67.08;99424.45;109656;1271;21990;-80
2023/03/24 07:09:46;;;;;;;22.10;15.10;;;;;;;13.19;66.99;99427.18;109617;1271;23726;-81
2023/03/24 07:12:15;;;;;;;16.80;14.40;;;;;;;13.25;66.81;99425.24;109964;1265;22445;-78
2023/03/24 07:14:44;;;;;;;18.10;15.90;;;;;;;13.32;66.77;99424.35;110228;1265;23761;-81
2023/03/24 07:17:15;;;;;;;19.10;17.10;;;;;;;13.39;66.78;99420.41;110295;1266;22654;-80
2023/03/24 07:20:07;;;;;;;17.70;15.80;;;;;;;13.49;66.68;99417.67;110651;1259;23589;-80
2023/03/24 07:22:41;;;;;;;16.30;14.90;;;;;;;13.70;67.22;99416.63;110978;1259;22514;-81
2023/03/24 07:25:28;;;;;;;16.40;14.40;;;;;;;14.09;67.69;99414.55;110833;1259;21975;-82
2023/03/24 07:28:07;;;;;;;13.20;11.70;;;;;;;14.58;67.32;99411.95;110330;1265;22049;-82
2023/03/24 07:30:35;;;;;;;13.00;11.30;;;;;;;14.97;65.94;99405.75;110323;1265;22966;-82
2023/03/24 07:33:10;;;;;;;13.20;10.00;;;;;;;15.22;64.47;99400.63;110028;1265;21971;-82
2023/03/24 07:35:39;;;;;;;11.70;9.30;;;;;;;15.39;63.44;99401.66;109647;1270;21986;-80
2023/03/24 07:38:09;;;;;;;8.60;7.00;;;;;;;15.51;62.85;99406.23;109561;1270;23756;-81
2023/03/24 07:40:42;;;;;;;9.60;8.20;;;;;;;15.69;62.78;99405.85;109675;1270;21983;-81
2023/03/24 07:43:20;;;;;;;10.60;7.90;;;;;;;15.84;62.46;99405.59;110048;1270;22115;-81
2023/03/24 07:46:20;;;;;;;9.60;8.50;;;;;;;16.08;62.06;99409.41;110208;1265;21986;-83
2023/03/24 07:49:06;;;;;;;6.80;5.50;;;;;;;16.35;61.40;99401.37;110704;1265;23834;-83
2023/03/24 07:52:10;;;;;;;5.60;4.70;;;;;;;16.66;60.31;99399.31;110425;1265;21972;-83
2023/03/24 07:54:55;;;;;;;9.20;6.10;;;;;;;16.83;59.03;99399.26;110390;1265;22009;-82
2023/03/24 07:57:52;;;;;;;5.20;4.60;;;;;;;16.95;58.52;99400.95;110430;1265;23128;-81
2023/03/24 08:00:24;;;;;;;7.50;5.50;;;;;;;17.00;57.49;99396.88;110518;1259;23796;-82
2023/03/24 08:03:34;;;;;;;9.20;5.70;;;;;;;16.97;57.12;99402.06;111077;1259;23695;-80
2023/03/24 08:06:35;;;;;;;9.60;7.80;;;;;;;16.92;57.00;99396.14;110835;1259;22033;-81
2023/03/24 08:09:14;;;;;;;9.10;6.60;;;;;;;16.88;56.92;99395.02;111146;1259;21980;-81
2023/03/24 08:11:59;;;;;;;7.30;5.10;;;;;;;16.90;57.00;99402.55;111198;1246;22027;-81
2023/03/24 08:14:56;;;;;;;7.20;6.40;;;;;;;16.93;57.00;99392.16;110717;1263;23621;-81
2023/03/24 08:17:47;;;;;;;11.30;6.90;;;;;;;17.04;57.15;99384.06;110631;1264;21979;-82
2023/03/24 08:20:23;;;;;;;;;;;;;;;17.22;56.97;99377.55;110559;1264;22063;-81
2023/03/24 08:22:54;;;;;;;8.60;4.70;;;;;;;17.37;57.21;99372.78;110803;1264;23704;-80
2023/03/24 08:26:05;;;;;;;6.40;4.80;;;;;;;17.62;56.42;99368.34;110528;1264;22163;-80
2023/03/24 08:28:38;;;;;;;7.50;4.40;;;;;;;17.73;55.04;99364.20;110341;1264;23625;-80
2023/03/24 08:31:08;;;;;;;6.20;4.10;;;;;;;17.68;54.26;99363.75;110626;1259;21992;-80
2023/03/24 08:33:40;;;;;;;;;;;;;;;17.61;54.21;99363.27;109959;1269;21962;-81
2023/03/24 08:36:09;;;;;;;8.10;5.00;;;;;;;17.47;54.43;99360.39;109973;1269;23092;-81
2023/03/24 08:38:41;;;;;;;6.10;4.20;;;;;;;17.47;54.50;99353.21;109869;1269;22147;-81
2023/03/24 08:41:19;;;;;;;5.30;4.50;;;;;;;17.39;54.15;99354.20;109848;1269;21998;-81
2023/03/24 08:43:47;;;;;;;7.60;4.50;;;;;;;17.33;54.18;99356.41;109847;1269;23054;-80
2023/03/24 08:46:16;;;;;;;5.80;4.40;;;;;;;17.24;53.82;99358.79;110141;1264;21978;-80
2023/03/24 08:48:50;;;;;;;7.70;3.90;;;;;;;17.15;54.13;99359.10;110478;1265;22032;-80
2023/03/24 08:51:21;;;;;;;4.90;4.10;;;;;;;17.09;54.19;99355.08;109765;1265;23075;-80
2023/03/24 08:53:52;;;;;;;8.10;4.40;;;;;;;17.01;54.27;99355.12;110321;1264;21991;-85
2023/03/24 08:56:21;;;;;;;18.10;5.60;;;;;;;16.94;54.42;99355.20;110087;1264;21973;-79
2023/03/24 08:58:52;;;;;;;8.40;4.50;;;;;;;16.87;54.57;99356.08;109957;1265;23743;-80
2023/03/24 09:01:23;;;;;;;8.10;4.00;;;;;;;16.80;54.67;99352.60;110212;1257;21974;-82
2023/03/24 09:03:51;;;;;;;5.40;4.60;;;;;;;16.68;54.53;99353.55;110217;1265;23702;-80
2023/03/24 09:06:19;;;;;;;8.70;5.30;;;;;;;16.53;54.84;99351.31;110289;1265;22304;-81
2023/03/24 09:08:47;;;;;;;6.60;5.10;;;;;;;16.45;55.24;99352.33;110292;1265;23047;-82
2023/03/24 09:11:20;;;;;;;7.10;4.30;;;;;;;16.44;55.74;99350.98;110243;1265;21961;-80
2023/03/24 09:13:49;;;;;;;7.50;5.20;;;;;;;16.51;56.07;99342.90;110558;1265;21965;-83
2023/03/24 09:16:18;;;;;;;8.50;5.00;;;;;;;16.59;56.10;99338.40;110468;1260;21971;-83
2023/03/24 09:18:46;;;;;;;7.90;4.70;;;;;;;16.75;56.31;99333.45;110620;1260;21974;-82
2023/03/24 09:21:15;;;;;;;12.60;4.60;;;;;;;16.99;56.24;99336.91;110494;1260;23696;-82
2023/03/24 09:23:43;;;;;;;6.10;4.80;;;;;;;17.18;55.79;99337.16;110645;1260;21965;-83
2023/03/24 09:26:11;;;;;;;7.10;4.60;;;;;;;17.31;55.29;99334.45;110664;1259;22010;-81
2023/03/24 09:28:42;;;;;;;7.70;4.00;;;;;;;17.36;54.15;99330.20;111047;1260;23677;-83
2023/03/24 09:31:17;;;;;;;4.60;3.90;;;;;;;17.28;53.69;99325.58;110970;1260;23055;-81
2023/03/24 09:33:50;;;;;;;7.40;4.00;;;;;;;17.28;54.18;99323.77;110846;1260;23016;-83
2023/03/24 09:36:28;;;;;;;5.70;4.50;;;;;;;17.48;54.78;99312.85;110905;1260;21964;-82
2023/03/24 09:39:02;;;;;;;6.10;4.90;;;;;;;17.79;54.51;99310.56;110630;1253;22214;-82
2023/03/24 09:41:32;;;;;;;11.20;5.50;;;;;;;18.18;53.36;99314.70;110978;1256;21997;-82
2023/03/24 09:44:11;;;;;;;5.50;4.30;;;;;;;18.29;51.87;99309.55;110910;1259;21974;-82
2023/03/24 09:47:27;;;;;;;7.80;4.40;;;;;;;18.49;52.66;99312.20;110930;1260;22061;-81
2023/03/24 09:50:29;;;;;;;6.90;4.00;;;;;;;18.96;51.75;99311.78;110695;1265;23028;-80
2023/03/24 09:53:42;;;;;;;8.80;3.60;;;;;;;19.38;50.98;99303.47;110697;1265;22760;-81
2023/03/24 09:56:22;;;;;;;5.80;5.20;;;;;;;19.69;49.70;99297.85;110682;1265;21972;-80
2023/03/24 09:59:21;;;;;;;13.00;10.60;;;;;;;19.84;48.88;99286.20;110419;1265;21993;-81
2023/03/24 10:01:53;;;;;;;5.20;3.70;;;;;;;20.13;49.29;99286.81;110878;1263;22005;-81
2023/03/24 10:04:26;;;;;;;13.30;10.60;;;;;;;20.56;48.73;99281.48;110117;1262;22805;-82
2023/03/24 10:07:24;;;;;;;13.50;11.30;;;;;;;20.87;47.43;99282.58;110503;1265;22369;-81
2023/03/24 10:10:01;;;;;;;5.60;4.00;;;;;;;21.16;47.01;99277.81;110965;1259;23615;-81
2023/03/24 10:12:47;;;;;;;3.70;3.10;;;;;;;21.45;46.10;99275.36;110970;1260;22391;-82
2023/03/24 10:16:06;;;;;;;7.70;3.40;;;;;;;21.69;45.45;99270.25;110401;1267;22001;-77
2023/03/24 10:19:16;;;;;;;5.20;3.60;;;;;;;22.11;45.10;99273.16;109658;1272;22430;-82
2023/03/24 10:22:24;;;;;;;4.70;3.70;;;;;;;22.33;43.87;99273.13;109637;1272;22495;-79
2023/03/24 10:25:36;;;;;;;5.00;3.10;;;;;;;22.31;43.27;99267.20;109526;1272;22007;-82
2023/03/24 10:28:58;;;;;;;5.50;2.90;;;;;;;22.12;43.63;99262.61;109630;1271;22005;-81
2023/03/24 10:31:39;;;;;;;3.30;2.70;;;;;;;21.79;43.37;99249.88;109159;1277;22033;-82
2023/03/24 10:34:12;;;;;;;4.20;2.40;;;;;;;21.66;43.51;99243.78;109109;1275;23101;-81
2023/03/24 10:36:57;;;;;;;4.00;2.70;;;;;;;21.59;43.46;99241.89;109260;1275;22002;-81
2023/03/24 10:39:45;;;;;;;4.10;2.70;;;;;;;21.52;43.76;99235.00;109313;1275;21991;-83
2023/03/24 10:42:30;;;;;;;4.00;2.70;;;;;;;21.58;43.77;99229.73;109218;1275;21992;-83
2023/03/24 10:45:49;;;;;;;4.90;2.70;;;;;;;21.69;43.88;99226.80;109386;1275;22016;-82
2023/03/24 10:48:40;;;;;;;6.40;2.50;;;;;;;21.77;43.62;99228.16;108890;1280;22140;-83
2023/03/24 10:51:34;;;;;;;3.40;2.40;;;;;;;21.67;43.35;99226.86;108654;1284;23425;-82
2023/03/24 10:54:32;;;;;;;5.20;3.90;;;;;;;21.55;43.31;99223.17;108746;1284;22464;-81
2023/03/24 10:57:16;;;;;;;4.80;3.60;;;;;;;21.50;43.45;99217.83;109029;1270;23055;-82
2023/03/24 11:00:28;;;;;;;7.40;3.30;;;;;;;21.33;43.15;99224.75;109000;1279;23749;-81
2023/03/24 11:03:16;;;;;;;6.70;2.70;;;;;;;21.17;43.50;99226.19;108728;1285;23053;-82
2023/03/24 11:05:47;;;;;;;5.90;3.80;;;;;;;21.09;43.51;99222.77;108622;1285;22006;-81
2023/03/24 11:08:37;;;;;;;7.20;3.50;;;;;;;21.08;43.59;99225.32;109199;1275;22030;-80
2023/03/24 11:11:32;;;;;;;4.20;2.40;;;;;;;21.06;43.52;99217.58;109419;1274;21996;-82
2023/03/24 11:14:21;;;;;;;3.60;2.50;;;;;;;20.97;43.41;99214.80;109362;1274;22029;-82
2023/03/24 11:17:14;;;;;;;5.90;3.10;;;;;;;20.82;43.42;99212.91;109491;1269;21985;-83
2023/03/24 11:20:00;;;;;;;5.00;3.00;;;;;;;20.74;43.50;99213.64;109452;1273;22666;-82
2023/03/24 11:22:47;;;;;;;4.80;2.80;;;;;;;20.72;43.73;99212.43;109536;1273;21980;-84
2023/03/24 11:25:20;;;;;;;5.40;2.80;;;;;;;20.72;43.63;99211.94;110012;1267;22052;-81
2023/03/24 11:28:01;;;;;;;4.10;2.90;;;;;;;20.67;43.59;99210.61;109941;1266;22312;-85
2023/03/24 11:31:05;;;;;;;6.40;2.80;;;;;;;20.55;43.93;99203.81;110004;1268;22001;-84
2023/03/24 11:34:04;;;;;;;5.80;2.60;;;;;;;20.47;44.32;99205.61;110167;1269;21980;-83
2023/03/24 11:37:00;;;;;;;8.40;3.00;;;;;;;20.38;44.33;99209.55;110090;1260;21973;-84
2023/03/24 11:39:34;;;;;;;6.50;2.50;;;;;;;20.28;44.64;99203.41;110830;1257;23480;-83
2023/03/24 11:42:30;;;;;;;16.10;2.80;;;;;;;20.19;45.04;99198.48;110912;1260;23670;-85
2023/03/24 11:45:37;;;;;;;8.40;3.40;;;;;;;20.19;45.19;99189.33;110864;1260;22977;-84
2023/03/24 11:48:20;;;;;;;4.90;2.40;;;;;;;20.14;45.25;99183.71;110913;1260;21999;-84
2023/03/24 11:51:43;;;;;;;4.00;2.70;;;;;;;20.08;45.34;99174.49;111136;1260;21954;-84
2023/03/24 11:54:32;;;;;;;3.60;2.90;;;;;;;19.99;45.55;99172.89;110053;1266;21977;-85
2023/03/24 11:57:40;;;;;;;3.40;2.70;;;;;;;19.96;45.86;99171.41;109998;1267;23598;-84
2023/03/24 12:01:10;;;;;;;6.90;2.70;;;;;;;19.97;46.07;99174.34;109847;1267;21977;-86
2023/03/24 12:04:18;;;;;;;9.40;3.30;;;;;;;19.95;45.98;99173.05;109087;1279;22008;-85
2023/03/24 12:07:28;;;;;;;4.30;2.80;;;;;;;19.95;45.98;99170.44;109184;1279;22074;-85
2023/03/24 12:10:37;;;;;;;5.00;2.40;;;;;;;19.98;46.11;99160.90;109166;1279;21987;-85
2023/03/24 12:13:17;;;;;;;4.90;3.90;;;;;;;20.02;45.89;99157.77;109139;1277;23643;-85
2023/03/24 12:16:31;;;;;;;8.50;2.90;;;;;;;20.02;45.86;99159.83;109173;1279;22048;-82
2023/03/24 12:19:25;;;;;;;5.60;4.80;;;;;;;20.02;45.68;99150.66;109203;1279;21997;-87
2023/03/24 12:22:14;;;;;;;5.20;3.90;;;;;;;19.96;45.55;99150.36;109169;1279;23068;-86
2023/03/24 12:25:39;;;;;;;5.00;3.00;;;;;;;19.88;45.70;99148.77;108900;1279;22239;-85
2023/03/24 12:28:21;;;;;;;5.20;3.10;;;;;;;19.80;45.76;99140.96;108908;1279;21968;-84
2023/03/24 12:31:48;;;;;;;5.60;2.80;;;;;;;19.75;45.86;99138.59;109002;1279;22000;-83
2023/03/24 12:34:53;;;;;;;5.50;3.40;;;;;;;19.68;45.88;99138.71;108564;1286;22001;-83
2023/03/24 12:37:56;;;;;;;14.60;11.10;;;;;;;19.59;45.94;99137.42;108546;1287;23139;-83
2023/03/24 12:41:13;;;;;;;22.30;12.80;;;;;;;19.49;46.16;99132.59;108966;1276;23162;-85
2023/03/24 12:44:37;;;;;;;7.10;5.00;;;;;;;19.38;46.17;99135.21;109262;1276;22030;-85
2023/03/24 12:47:48;;;;;;;7.30;3.10;;;;;;;19.26;46.42;99138.56;108764;1283;23008;-85